Main page
METAR-TAF:

METAR-TAF

Airports :

Tunis, Tunisia

Tunis–Carthage International Airport

latitude: 36-50N, longitude: 010-14E, elevation: 3 m

Current weather observation

The report was made 42 minutes ago, at 08:30 UTC
Wind 2 kt from variable directions
Temperature 16°C
Humidity 68%
Pressure 1021 hPa
Visibility: 8000 m
Scattered clouds at a height of 2600 ft

METAR: DTTA 260830Z VRB02KT 8000 SCT026 16/10 Q1021

Time: 10:12 (09:12 UTC)

Forecast

The report was made 3 hours and 30 minutes ago, at 05:42 UTC
Forecast valid from 26 at 06 UTC to 27 at 06 UTC
Wind 3 kt from variable directions
Visibility: 8000 m
Scattered clouds at a height of 2600 ft
Becoming
from 26 at 10 UTC to 26 at 12 UTC
Wind 10 kt from the East

TAF: DTTA 260542Z 2606/2706 VRB03KT 8000 SCT026 BECMG 2610/2612 09010KT

Weather observations and forecasts of more than 4000 airports (METAR and TAF reports).

The available stations are represented by yellow and red dots on the map.

Hover mouse over dot to see the name of the station.

Then click to see weather observations and forecasts.

To change the map : click on the green buttons with a black cross to zoom in, on the green button with a dash to zoom out, or on the green arrows for adjacent maps.


METAR-TAF: